createdAt,value
2022-12-06T00:02:10.978Z,10.00
2022-12-06T00:10:19.405Z,10.10
2022-12-06T00:18:24.749Z,10.20
2022-12-06T00:26:33.499Z,10.40
2022-12-06T00:34:38.954Z,10.40
2022-12-06T00:42:47.177Z,10.40
2022-12-06T00:50:53.087Z,10.50
2022-12-06T00:59:01.181Z,10.50
2022-12-06T01:07:06.570Z,10.50
2022-12-06T01:15:15.723Z,10.40
2022-12-06T01:23:21.080Z,10.40
2022-12-06T01:31:35.383Z,10.30
2022-12-06T01:39:42.830Z,10.10
2022-12-06T01:47:50.874Z,9.90
2022-12-06T01:55:57.729Z,9.40
2022-12-06T02:04:07.027Z,9.10
2022-12-06T02:12:16.017Z,9.00
2022-12-06T02:20:32.592Z,9.00
2022-12-06T02:29:07.820Z,8.70
2022-12-06T02:37:21.620Z,8.70
2022-12-06T02:45:31.799Z,8.50
2022-12-06T02:53:44.644Z,8.50
2022-12-06T03:01:55.234Z,8.30
2022-12-06T03:10:13.333Z,8.60
2022-12-06T03:18:24.275Z,8.90
2022-12-06T03:26:36.577Z,9.10
2022-12-06T03:34:44.121Z,9.20
2022-12-06T03:42:53.257Z,9.30
2022-12-06T03:51:02.787Z,9.60
2022-12-06T03:59:11.539Z,9.60
2022-12-06T04:07:21.385Z,9.70
2022-12-06T04:15:30.505Z,9.70
2022-12-06T04:23:39.042Z,9.70
2022-12-06T04:31:59.500Z,9.70
2022-12-06T04:40:05.402Z,9.60
2022-12-06T04:48:13.814Z,9.50
2022-12-06T04:56:19.411Z,9.50
2022-12-06T05:04:27.436Z,9.50
2022-12-06T05:12:32.958Z,9.70
2022-12-06T05:20:40.906Z,9.60
2022-12-06T05:28:46.829Z,9.50
2022-12-06T05:36:55.070Z,9.30
2022-12-06T05:45:00.442Z,8.90
2022-12-06T05:53:08.643Z,8.70
2022-12-06T06:01:14.125Z,8.70
2022-12-06T06:09:22.240Z,8.70
2022-12-06T06:17:27.963Z,8.90
2022-12-06T06:25:36.647Z,9.20
2022-12-06T06:33:42.026Z,9.50
2022-12-06T06:41:50.711Z,9.70
2022-12-06T06:49:56.049Z,9.90
2022-12-06T06:58:04.325Z,10.00
2022-12-06T07:06:12.644Z,10.30
2022-12-06T07:14:20.717Z,10.30
2022-12-06T07:22:26.011Z,10.40
2022-12-06T07:30:34.388Z,10.70
2022-12-06T07:38:40.012Z,10.80
2022-12-06T07:46:49.050Z,10.80
2022-12-06T07:54:54.538Z,10.70
2022-12-06T08:03:02.469Z,10.70
2022-12-06T08:11:10.715Z,10.80
2022-12-06T08:19:18.578Z,11.10
2022-12-06T08:27:24.133Z,11.30
2022-12-06T08:35:32.164Z,11.60
2022-12-06T08:43:37.889Z,12.40
2022-12-06T08:51:47.037Z,13.00
2022-12-06T08:59:53.229Z,14.00
2022-12-06T09:08:01.283Z,15.90
2022-12-06T09:16:10.807Z,16.90
2022-12-06T09:24:20.799Z,15.70
2022-12-06T09:32:43.608Z,14.40
2022-12-06T09:41:02.026Z,13.70
2022-12-06T09:49:40.968Z,13.70
2022-12-06T09:57:54.899Z,13.70
2022-12-06T10:06:06.245Z,13.70
2022-12-06T10:14:28.454Z,13.60
2022-12-06T10:22:46.165Z,13.50
2022-12-06T10:30:56.569Z,13.20
2022-12-06T10:39:14.333Z,13.10
2022-12-06T10:47:28.393Z,13.30
2022-12-06T10:55:38.687Z,13.30
2022-12-06T11:04:01.022Z,13.30
2022-12-06T11:12:19.555Z,13.50
2022-12-06T11:20:34.104Z,13.80
2022-12-06T11:28:44.842Z,14.20
2022-12-06T11:36:59.903Z,14.60
2022-12-06T11:45:10.282Z,14.70
2022-12-06T11:53:28.781Z,14.50
2022-12-06T12:01:44.783Z,14.70
2022-12-06T12:10:04.976Z,14.60
2022-12-06T12:18:26.593Z,15.00
2022-12-06T12:26:43.919Z,15.30
2022-12-06T12:34:49.978Z,15.50
2022-12-06T12:43:06.006Z,15.30
2022-12-06T12:51:25.715Z,15.20
2022-12-06T12:59:40.908Z,15.10
2022-12-06T13:07:50.299Z,14.70
2022-12-06T13:16:08.848Z,14.30
2022-12-06T13:24:25.239Z,14.00
2022-12-06T13:32:37.889Z,14.00
2022-12-06T13:40:52.516Z,13.60
2022-12-06T13:49:02.030Z,13.30
2022-12-06T13:57:27.061Z,13.80
2022-12-06T14:06:01.162Z,14.00
2022-12-06T14:14:09.817Z,14.20
2022-12-06T14:22:25.135Z,13.70
2022-12-06T14:30:31.285Z,13.50
2022-12-06T14:38:39.854Z,13.60
2022-12-06T14:46:47.226Z,13.70
2022-12-06T14:54:56.643Z,13.80
2022-12-06T15:03:22.839Z,13.90
2022-12-06T15:12:03.607Z,13.90
2022-12-06T15:20:20.365Z,13.70
2022-12-06T15:28:28.706Z,13.60
2022-12-06T15:36:36.715Z,13.70
2022-12-06T15:44:49.194Z,13.60
2022-12-06T15:52:55.415Z,13.80
2022-12-06T16:01:03.754Z,13.60
2022-12-06T16:09:09.664Z,13.20
2022-12-06T16:17:17.619Z,13.00
2022-12-06T16:25:23.303Z,12.70
2022-12-06T16:33:31.759Z,12.70
2022-12-06T16:41:39.025Z,12.90
2022-12-06T16:49:49.448Z,13.10
2022-12-06T16:57:55.097Z,12.70
2022-12-06T17:06:04.131Z,12.40
2022-12-06T17:14:14.478Z,12.40
2022-12-06T17:22:22.838Z,12.30
2022-12-06T17:30:28.217Z,12.20
2022-12-06T17:38:36.216Z,12.10
2022-12-06T17:46:42.679Z,12.30
2022-12-06T17:54:50.834Z,12.70
2022-12-06T18:02:56.599Z,13.00
2022-12-06T18:11:07.646Z,13.10
2022-12-06T18:19:15.629Z,13.10
2022-12-06T18:27:23.878Z,13.20
2022-12-06T18:35:29.593Z,13.10
2022-12-06T18:43:38.608Z,13.10
2022-12-06T18:51:44.905Z,12.80
2022-12-06T18:59:54.718Z,12.60
2022-12-06T19:08:00.212Z,12.00
2022-12-06T19:16:08.908Z,11.80
2022-12-06T19:24:16.258Z,12.10
2022-12-06T19:32:25.139Z,12.20
2022-12-06T19:40:30.471Z,12.40
2022-12-06T19:48:38.436Z,12.30
2022-12-06T19:56:43.852Z,12.30
2022-12-06T20:04:52.747Z,12.00
2022-12-06T20:12:58.842Z,11.90
2022-12-06T20:21:07.061Z,12.20
2022-12-06T20:29:13.866Z,12.50
2022-12-06T20:37:21.821Z,12.80
2022-12-06T20:45:27.145Z,12.90
2022-12-06T20:53:35.850Z,13.10
2022-12-06T21:01:43.863Z,13.10
2022-12-06T21:09:51.850Z,12.80
2022-12-06T21:17:57.880Z,12.60
2022-12-06T21:26:08.815Z,12.30
2022-12-06T21:34:14.597Z,12.50
2022-12-06T21:42:24.072Z,12.70
2022-12-06T21:50:29.503Z,12.80
2022-12-06T21:58:39.658Z,12.90
2022-12-06T22:06:45.113Z,12.80
2022-12-06T22:14:53.383Z,12.50
2022-12-06T22:22:59.834Z,12.00
2022-12-06T22:31:18.672Z,11.80
2022-12-06T22:39:24.303Z,11.80
2022-12-06T22:47:33.474Z,11.90
2022-12-06T22:55:38.848Z,12.20
2022-12-06T23:03:47.221Z,12.30
2022-12-06T23:11:52.656Z,12.50
2022-12-06T23:20:00.850Z,12.60
2022-12-06T23:28:06.494Z,12.80
2022-12-06T23:36:17.838Z,12.80
2022-12-06T23:44:25.272Z,12.80
2022-12-06T23:52:33.181Z,12.80
